Marcos Braga

Scout - Internacional
23 Apr 2028
Sonntag
Verarbeitung

Persönlichkeit

Anpassungsfähigkeit (4) Ehrgeiz (6) Kontroverse (6) Loyalität (2) Druck (2) Professionalität (1) Fairness (8) Temperament (16)

Profil

Trainerstil Demokratisch
Lizenz Nationale A
Entschlossenheit 9
Menschenführung 10
Motivation 7
Disziplin 10
Arbeitszufriedenheit
100%
Ermüdung
0%
Rolle Scout
Gehalt 60.6K p/W
Vertrag 14.03.2029

Leistung

Verhalten Gut
Trainingseffektivität
48%
Spielerentwicklung
70%
Verletzungsprävention
75%
Taktische Umsetzung
50%

Letzte Ereignisse

Nahm an einer Scouting-Besprechung teil jetzt
Nahm an einer Scouting-Besprechung teil 7T her
Empfahl ein Transferziel 7T her
Empfahl ein Transferziel 7T her
Nahm an einer Scouting-Besprechung teil 14T her
Empfahl ein Transferziel 14T her
Empfahl ein Transferziel 14T her
Empfahl ein Transferziel 21T her

Aktuell beobachtet

179
Spieler Verein Status Fähigkeit Vertrauen Beobachtet Zuletzt beobachtet Letzte Stimme
Artur Botafogo Aktiv 140 / 144 58% 1 27.12.2027 Befürworten
Cédric Soares Sport Recife Aktiv 116 / 109 58% 1 01.12.2027 Befürworten
Gonzalo Fulham Aktiv 139 / 133 40% 3 31.05.2027 -
Assane Diao Como Aktiv 152 / 156 40% 2 31.05.2027 -
Yeremy Pino Crystal Palace Aktiv 160 / 139 40% 3 30.05.2027 -
Azor Matusiwa Ipswich Town Aktiv 154 / 134 40% 3 27.05.2027 -
Savinho Tottenham Aktiv 163 / 170 40% 2 26.05.2027 -
Nobel Mendy Hull City Aktiv 144 / 138 40% 2 24.05.2027 -
Mile Svilar AS Roma Aktiv 164 / 171 40% 1 23.05.2027 -
Fabrizio Correa Juventud Aktiv 125 / 126 40% 1 23.05.2027 -
Ben Nelson Leicester City Aktiv 144 / 120 40% 1 22.05.2027 -
Boubacar Kamara Aston Villa Aktiv 164 / 163 40% 2 21.05.2027 -
Aune Heggebø West Bromwich Albion Aktiv 139 / 134 40% 3 20.05.2027 -
Emanuel Emegha Chelsea Aktiv 127 / 135 40% 2 20.05.2027 -
Lorenzo Colombo Genoa Aktiv 146 / 124 40% 2 18.05.2027 -
Alex Scott Bournemouth Aktiv 165 / 162 40% 2 18.05.2027 -
Noni Madueke Arsenal Aktiv 171 / 151 40% 1 18.05.2027 -
Malick Fofana Sunderland Aktiv 153 / 149 40% 1 18.05.2027 -
Nicolas Jackson Aston Villa Aktiv 162 / 149 40% 2 16.05.2027 -
Joe Gelhardt Hull City Aktiv 129 / 146 40% 1 16.05.2027 -
Gonçalo Ramos AC Milan Aktiv 140 / 141 40% 1 14.05.2027 -
Jason Knight Bristol City Aktiv 137 / 115 40% 1 13.05.2027 -
Pedro Porro Tottenham Aktiv 157 / 139 40% 2 08.05.2027 -
Tino Livramento Newcastle United Aktiv 147 / 146 40% 3 05.05.2027 -
Amadou Onana Aston Villa Aktiv 162 / 166 40% 1 05.05.2027 -
Oliver Dovin Coventry City Aktiv 125 / 138 40% 2 04.05.2027 -
Mohamed-Ali Cho Hull City Aktiv 136 / 131 40% 2 03.05.2027 -
Sam Bell Bristol City Aktiv 107 / 133 40% 1 03.05.2027 -
Georginio Rutter Brighton Aktiv 140 / 161 40% 1 01.05.2027 -
Diego Romero Universitario Aktiv 115 / 132 40% 1 30.04.2027 -
Adam Wharton Crystal Palace Aktiv 139 / 164 40% 2 29.04.2027 -
Thiago Brentford Aktiv 130 / 145 40% 1 28.04.2027 -
João Pedro Chelsea Aktiv 158 / 164 40% 1 28.04.2027 -
André-Franck Zambo Anguissa Napoli Aktiv 157 / 151 40% 3 24.04.2027 -
James Garner Everton Aktiv 146 / 164 40% 1 24.04.2027 -
Kyle Walker-Peters West Ham United Aktiv 133 / 139 40% 1 22.04.2027 -
Olivier Boscagli Brighton Aktiv 157 / 149 40% 1 21.04.2027 -
Moisés Caicedo Chelsea Aktiv 166 / 169 40% 1 21.04.2027 -
Sławomir Abramowicz Jagiellonia Aktiv 125 / 123 40% 2 20.04.2027 -
Manor Solomon West Ham United Aktiv 139 / 143 40% 1 18.04.2027 -
Fran Vieites Walsall Aktiv 108 / 109 40% 2 15.04.2027 -
Deniz Ertaş Konyaspor Aktiv 140 / 132 40% 1 15.04.2027 -
Lucas Lund Viborg Aktiv 135 / 122 40% 1 14.04.2027 -
Matthew Targett Hull City Aktiv 139 / 115 40% 2 13.04.2027 -
Luke McNally Bristol City Aktiv 131 / 144 40% 1 13.04.2027 -
Jack Rudoni Coventry City Aktiv 142 / 123 40% 3 12.04.2027 -
Jackson Muleka Konyaspor Aktiv 134 / 133 40% 2 12.04.2027 -
Sam Greenwood Bristol City Aktiv 110 / 115 40% 2 08.04.2027 -
Milan van Ewijk Coventry City Aktiv 137 / 119 40% 1 08.04.2027 -
Zion Suzuki Aston Villa Aktiv 159 / 141 40% 3 05.04.2027 -
Florentino Luís Ipswich Town Aktiv 136 / 127 40% 1 05.04.2027 -
Diego Gómez Brighton Aktiv 149 / 138 40% 1 05.04.2027 -
Dara O'Shea Ipswich Town Aktiv 126 / 135 40% 3 03.04.2027 -
Christopher Opéri Basaksehir Aktiv 119 / 129 40% 1 03.04.2027 -
Richard Koné Queens Park Rangers Aktiv 117 / 119 40% 1 02.04.2027 -
Ilyas Ansah Hull City Aktiv 144 / 120 40% 1 02.04.2027 -
Stiven Shpendi Empoli Aktiv 112 / 109 40% 1 01.04.2027 -
Aidan Morris Middlesbrough Aktiv 145 / 123 40% 1 31.03.2027 -
Ivo Mammini Beitar Jerusalem Aktiv 110 / 126 40% 1 30.03.2027 -
Willem Geubbels Lecce Aktiv 127 / 114 40% 1 30.03.2027 -
Harry Clarke Preston Aktiv 117 / 135 40% 2 29.03.2027 -
Ollie Scarles West Ham United Aktiv 123 / 138 40% 1 29.03.2027 -
Habib Diarra Sunderland Aktiv 154 / 150 40% 1 28.03.2027 -
Raúl Rangel Braga Aktiv 124 / 129 40% 2 25.03.2027 -
Henrique Araújo Casa Pia Aktiv 115 / 125 40% 2 24.03.2027 -
Cezary Miszta Rio Ave Aktiv 141 / 134 40% 2 20.03.2027 -
Brooke Norton-Cuffy Hull City Aktiv 122 / 136 40% 2 20.03.2027 -
Mads Hedenstad AGF Aktiv 120 / 124 40% 1 20.03.2027 -
Robin Roefs Sunderland Aktiv 154 / 131 40% 6 18.03.2027 -
Gabriel Brazão Santos Aktiv 135 / 140 40% 2 17.03.2027 -
Zeno Debast Sporting CP Aktiv 138 / 149 40% 2 16.03.2027 -
Adam Randell Bristol City Aktiv 132 / 126 40% 2 15.03.2027 -
Denis Huseinbašić Braga Aktiv 118 / 143 40% 1 15.03.2027 -
Pablo Rosario Porto Aktiv 153 / 127 40% 3 14.03.2027 -
Jacques Ekomié Wrexham Aktiv 122 / 136 40% 1 14.03.2027 -
Leon Goretzka Aston Villa Aktiv 160 / 163 40% 5 13.03.2027 -
Gustavo Silva Vitoria Guimaraes Aktiv 115 / 128 40% 2 13.03.2027 -
Vinícius Lopes Santa Clara Aktiv 130 / 131 40% 1 13.03.2027 -
Max Johnston Derby County Aktiv 129 / 135 40% 1 11.03.2027 -
Justo Giani Umraniyespor Aktiv 105 / 128 40% 1 11.03.2027 -
Yousef Salech Cardiff City Aktiv 141 / 137 40% 1 11.03.2027 -
Maduka Okoye Udinese Aktiv 128 / 131 40% 2 10.03.2027 -
Sorriso Famalicao Aktiv 147 / 128 40% 1 08.03.2027 -
Gustavo Hamer Sheffield United Aktiv 118 / 140 40% 1 06.03.2027 -
Mads Hermansen West Ham United Aktiv 150 / 123 40% 5 05.03.2027 -
Josh Keeley Luton Town Aktiv 129 / 127 40% 3 05.03.2027 -
Sikou Niakaté Braga Aktiv 141 / 150 40% 1 05.03.2027 -
Sergi Altimira Sporting CP Aktiv 152 / 145 40% 2 03.03.2027 -
Elia Caprile Cagliari Aktiv 140 / 135 40% 2 01.03.2027 -
Andreas Jungdal Westerlo Aktiv 109 / 109 40% 1 01.03.2027 -
Patrick Agyemang Derby County Aktiv 122 / 131 40% 1 28.02.2027 -
Rodrigo Pinheiro Famalicao Aktiv 137 / 130 40% 1 22.02.2027 -
Jeremy Márquez Cruz Azul Aktiv 138 / 139 40% 1 22.02.2027 -
Mathias De Amorim Famalicao Aktiv 118 / 147 40% 4 20.02.2027 -
Figueiredo Alverca Aktiv 142 / 113 40% 2 19.02.2027 -
Roberto Fernández Braga Aktiv 141 / 127 40% 1 19.02.2027 -
Dinis Pinto Moreirense Aktiv 120 / 116 40% 3 17.02.2027 -
Marquinhos Spartak Moscow Aktiv 113 / 115 40% 1 17.02.2027 -
Tyrese Campbell Sheffield United Aktiv 132 / 133 40% 1 15.02.2027 -
Tamble Monteiro Rio Ave Aktiv 112 / 132 40% 1 13.02.2027 -
Jan Bednarek Porto Aktiv 146 / 143 40% 3 12.02.2027 -
Filip Kubala Banik Ostrava Aktiv 125 / 136 40% 1 11.02.2027 -
Duk Atlas Aktiv 112 / 105 40% 1 11.02.2027 -
Nicolò Tresoldi Club Brugge Aktiv 136 / 124 40% 1 10.02.2027 -
Mohammad Hosseini Malavan Aktiv 102 / 136 40% 1 08.02.2027 -
Martín Tejón Maritimo Aktiv 104 / 119 40% 2 05.02.2027 -
Grégoire Coudert Burnley Aktiv 128 / 138 40% 5 04.02.2027 -
Gabriel Silva Braga Aktiv 116 / 113 40% 3 03.02.2027 -
Alfonso Trezza Arouca Aktiv 120 / 138 40% 1 03.02.2027 -
Enzo Barrenechea Benfica Aktiv 157 / 136 40% 3 31.01.2027 -
Luís Esteves Atlas Aktiv 141 / 130 40% 1 31.01.2027 -
Radek Vítek Middlesbrough Aktiv 129 / 127 40% 3 29.01.2027 -
Jordan Holsgrove Estoril Praia Aktiv 143 / 114 40% 1 28.01.2027 -
Matheus Bidu Corinthians Aktiv 138 / 124 40% 2 26.01.2027 -
André Wolverhampton Aktiv 144 / 132 40% 1 26.01.2027 -
Rubén Duarte Pumas UNAM Aktiv 116 / 129 40% 1 19.01.2027 -
Caio Alexandre Bahia Aktiv 144 / 146 40% 1 13.01.2027 -
Hidemasa Morita Hull City Aktiv 144 / 156 40% 1 13.01.2027 -
Lazar Carević Famalicao Aktiv 114 / 133 40% 2 11.01.2027 -
Luciano Juba Bahia Aktiv 133 / 122 40% 2 10.01.2027 -
Lucas Paquetá Flamengo Aktiv 133 / 143 40% 1 08.01.2027 -
James Trafford Leeds United Aktiv 152 / 134 40% 3 29.12.2026 -
Lukas Jensen Millwall Aktiv 117 / 131 40% 1 23.12.2026 -
Anthony Patterson Wrexham Aktiv 112 / 126 40% 2 14.12.2026 -
Bright Arrey-Mbi Braga Aktiv 118 / 123 40% 2 30.11.2026 -
Soma Anzai FC Tokyo Aktiv 117 / 108 40% 2 28.11.2026 -
Lorougnon Gohi Académico de Viseu Aktiv 102 / 128 40% 3 26.11.2026 -
Adriel Torreense Aktiv 116 / 125 40% 2 25.11.2026 -
Tomás Araújo Benfica Aktiv 138 / 159 40% 1 23.11.2026 -
Samuel Soares Benfica Aktiv 138 / 139 40% 2 21.11.2026 -
Mario Dorgeles Braga Aktiv 121 / 145 40% 6 14.11.2026 -
Taichi Fukui Arouca Aktiv 124 / 118 40% 1 14.11.2026 -
Ramón Juárez Club America Aktiv 123 / 125 40% 1 12.11.2026 -
Joe Hodge Tondela Aktiv 133 / 120 40% 1 11.11.2026 -
Giorgos Koutsias Famalicao Aktiv 110 / 120 40% 1 08.11.2026 -
Carlos Forbs Club Brugge Aktiv 148 / 133 40% 1 08.11.2026 -
Hugo Souza Corinthians Aktiv 126 / 136 40% 4 05.11.2026 -
Erik Lira Cruz Azul Aktiv 120 / 138 40% 1 03.11.2026 -
Ianis Stoica Estrela da Amadora Aktiv 99 / 120 40% 1 02.11.2026 -
Matheus Dias Nacional Aktiv 117 / 124 40% 1 02.11.2026 -
Daniel Júnior Nacional Aktiv 99 / 98 40% 3 31.10.2026 -
Manu Pozo Torreense Aktiv 110 / 131 40% 4 30.10.2026 -
Bernardo Fontes Braga Aktiv 126 / 129 40% 1 30.10.2026 -
Mateja Stjepanović Moreirense Aktiv 126 / 123 40% 1 30.10.2026 -
Tiago Ribeiro Oliveirense Aktiv 108 / 111 40% 1 29.10.2026 -
Brenner Santa Clara Aktiv 101 / 123 40% 1 29.10.2026 -
Cristian Medina Botafogo Aktiv 117 / 140 40% 1 27.10.2026 -
Alan Varela Porto Aktiv 143 / 134 40% 1 26.10.2026 -
Mauro Silveira Junior Aktiv 128 / 107 40% 1 24.10.2026 -
Caoimhin Kelleher Brentford Aktiv 164 / 135 40% 1 23.10.2026 -
Alejandro Piedrahita Deportivo Pereira Aktiv 134 / 131 40% 1 20.10.2026 -
Francisco Domingues Moreirense Aktiv 122 / 113 40% 1 19.10.2026 -
William Cruzeiro Aktiv 127 / 137 40% 1 15.10.2026 -
Jean-Baptiste Gorby Braga Aktiv 149 / 120 40% 1 13.10.2026 -
Brian Gutiérrez Guadalajara Aktiv 143 / 145 40% 1 11.10.2026 -
Luis Romo Guadalajara Aktiv 154 / 150 40% 1 11.10.2026 -
Andrés Gómez Vasco da Gama Aktiv 136 / 144 40% 1 08.10.2026 -
Alberto Costa Porto Aktiv 141 / 131 40% 5 07.10.2026 -
Lucão Gil Vicente Aktiv 128 / 110 40% 1 07.10.2026 -
Pau Víctor Braga Aktiv 149 / 126 40% 3 04.10.2026 -
Lewis Cook Bournemouth Aktiv 165 / 131 40% 1 01.10.2026 -
Luis Quintero Torreense Aktiv 128 / 132 40% 1 28.09.2026 -
Alan Lescano Argentinos Juniors Aktiv 128 / 121 40% 1 28.09.2026 -
Michael Cooper Sheffield United Aktiv 142 / 130 40% 1 27.09.2026 -
Guilherme Arana Fluminense Aktiv 141 / 146 40% 2 25.09.2026 -
Léo Ortiz Flamengo Aktiv 149 / 138 40% 1 25.09.2026 -
Juan Sierra La Equidad Aktiv 125 / 132 40% 1 24.09.2026 -
Rico Henry River Plate Aktiv 140 / 142 40% 1 23.09.2026 -
Danilo Botafogo Aktiv 149 / 132 40% 1 23.09.2026 -
Samuel Dahl Benfica Aktiv 132 / 139 40% 3 22.09.2026 -
Lee Hyun-Ju Arouca Aktiv 134 / 110 40% 1 19.09.2026 -
Renan Lodi Atlético Mineiro Aktiv 147 / 125 40% 1 08.09.2026 -
Korede Osundina Casa Pia Aktiv 127 / 104 40% 1 07.09.2026 -
Carlos Álvarez Club America Aktiv 150 / 138 40% 1 27.08.2026 -
Gianluca Prestianni Benfica Aktiv 138 / 145 40% 2 23.08.2026 -
Arthur Flamengo Aktiv 144 / 142 40% 1 22.08.2026 -
Ricardo Horta Braga Aktiv 152 / 162 40% 1 17.08.2026 -
Heorhii Sudakov Benfica Aktiv 155 / 143 40% 1 11.08.2026 -
Eduardo Quaresma Sporting CP Aktiv 141 / 149 40% 1 02.08.2026 -